Time;durP1;ratioP1;P1;durP2;ratioP2;P2;SDS_P1;SDS_P2;PMS_P1;PMS_P2;Temp;Humidity;BMP_temperature;BMP_pressure;BME280_temperature;BME280_humidity;BME280_pressure;Samples;Min_cycle;Max_cycle;Signal;HPM_P1;HPM_P2
2021/05/02 00:00:04;;;;;;;30.53;20.80;;;8.10;99.90;;;;;;5090865;28;20540;-68
2021/05/02 00:02:31;;;;;;;29.27;20.10;;;8.40;99.90;;;;;;5089894;28;20440;-68
2021/05/02 00:04:57;;;;;;;23.97;17.73;;;8.30;99.90;;;;;;5090139;28;20553;-68
2021/05/02 00:07:24;;;;;;;31.97;19.00;;;8.20;99.90;;;;;;5089780;28;20964;-67
2021/05/02 00:09:50;;;;;;;27.20;19.30;;;8.20;99.90;;;;;;5090238;28;21016;-68
2021/05/02 00:12:16;;;;;;;27.23;18.43;;;8.00;99.90;;;;;;5090339;28;20445;-68
2021/05/02 00:14:43;;;;;;;30.60;20.30;;;8.00;99.90;;;;;;5089288;28;20445;-67
2021/05/02 00:17:10;;;;;;;30.53;19.03;;;8.10;99.90;;;;;;5089355;28;20484;-68
2021/05/02 00:19:38;;;;;;;29.50;19.43;;;7.90;99.90;;;;;;5089550;28;20459;-68
2021/05/02 00:22:05;;;;;;;27.13;19.60;;;8.10;99.90;;;;;;5090204;28;20448;-68
2021/05/02 00:24:34;;;;;;;24.83;18.43;;;8.20;99.90;;;;;;5089010;28;20444;-67
2021/05/02 00:27:01;;;;;;;28.93;20.00;;;8.10;99.90;;;;;;5087271;28;20504;-68
2021/05/02 00:29:30;;;;;;;23.87;17.63;;;8.10;99.90;;;;;;5089438;28;20476;-67
2021/05/02 00:31:57;;;;;;;25.83;19.00;;;8.30;99.90;;;;;;5090201;28;20456;-68
2021/05/02 00:34:27;;;;;;;27.43;19.13;;;8.30;99.90;;;;;;5089038;28;20453;-67
2021/05/02 00:36:54;;;;;;;26.03;18.13;;;8.30;99.90;;;;;;5087528;28;20565;-67
2021/05/02 00:39:21;;;;;;;25.77;17.80;;;8.30;99.90;;;;;;5089867;28;20894;-68
2021/05/02 00:41:52;;;;;;;26.83;18.47;;;8.10;99.90;;;;;;5089665;28;20755;-68
2021/05/02 00:44:25;;;;;;;23.00;17.13;;;8.10;99.90;;;;;;5089464;28;20479;-68
2021/05/02 00:46:53;;;;;;;26.53;18.33;;;8.10;99.90;;;;;;5089422;28;20491;-68
2021/05/02 00:49:28;;;;;;;25.70;19.83;;;8.10;99.90;;;;;;5089080;28;20952;-68
2021/05/02 00:52:00;;;;;;;28.60;18.37;;;8.10;99.90;;;;;;5089350;28;20562;-68
2021/05/02 00:54:35;;;;;;;23.50;17.73;;;8.00;99.90;;;;;;5088337;28;20483;-67
2021/05/02 00:57:06;;;;;;;25.40;17.60;;;8.00;99.90;;;;;;5089312;28;20484;-68
2021/05/02 00:59:44;;;;;;;23.27;16.30;;;7.90;99.90;;;;;;5089192;28;20535;-68
2021/05/02 01:02:13;;;;;;;32.80;19.77;;;8.00;99.90;;;;;;5088723;28;20988;-68
2021/05/02 01:04:42;;;;;;;25.60;19.07;;;8.20;99.90;;;;;;5088597;28;21018;-68
2021/05/02 01:07:15;;;;;;;23.27;17.03;;;8.30;99.90;;;;;;5088965;28;20986;-68
2021/05/02 01:09:42;;;;;;;24.50;16.83;;;8.20;99.90;;;;;;5088755;28;21206;-68
2021/05/02 01:12:12;;;;;;;22.40;16.80;;;8.20;99.90;;;;;;5089384;28;20448;-68
2021/05/02 01:14:44;;;;;;;21.53;16.37;;;8.10;99.90;;;;;;5088140;28;20453;-68
2021/05/02 01:17:13;;;;;;;20.50;16.23;;;8.10;99.90;;;;;;5088664;28;20522;-68
2021/05/02 01:19:40;;;;;;;26.40;19.03;;;8.10;99.90;;;;;;5088568;28;20540;-67
2021/05/02 01:22:14;;;;;;;25.20;16.07;;;8.00;99.90;;;;;;5089596;28;20440;-68
2021/05/02 01:24:45;;;;;;;24.20;17.83;;;8.00;99.90;;;;;;5090523;28;20457;-67
2021/05/02 01:27:22;;;;;;;22.50;17.73;;;8.10;99.90;;;;;;5091273;28;20488;-68
2021/05/02 01:29:50;;;;;;;21.30;17.33;;;8.00;99.90;;;;;;5087957;28;20452;-67
2021/05/02 01:32:16;;;;;;;26.53;19.47;;;8.00;99.90;;;;;;5091215;28;20455;-68
2021/05/02 01:34:43;;;;;;;22.33;18.30;;;8.20;99.90;;;;;;5090598;28;20453;-68
2021/05/02 01:37:10;;;;;;;25.00;19.90;;;8.40;99.90;;;;;;5090715;28;20490;-68
2021/05/02 01:39:36;;;;;;;23.87;17.60;;;8.30;99.90;;;;;;5090834;28;20539;-68
2021/05/02 01:42:04;;;;;;;21.30;15.93;;;8.20;99.90;;;;;;5091041;28;20444;-68
2021/05/02 01:44:30;;;;;;;20.47;16.53;;;8.20;99.90;;;;;;5090319;28;20445;-68
2021/05/02 01:47:00;;;;;;;19.33;17.27;;;8.10;99.90;;;;;;5090724;28;20451;-68
2021/05/02 01:49:27;;;;;;;24.00;18.33;;;8.10;99.90;;;;;;5090395;28;20447;-68
2021/05/02 01:51:54;;;;;;;24.73;16.87;;;8.20;99.90;;;;;;5091089;28;20444;-68
2021/05/02 01:54:21;;;;;;;23.20;15.73;;;8.10;99.90;;;;;;5090745;28;20459;-68
2021/05/02 01:56:47;;;;;;;27.97;17.90;;;8.00;99.90;;;;;;5089785;28;20524;-68
2021/05/02 01:59:15;;;;;;;23.20;16.27;;;8.00;99.90;;;;;;5090813;28;20964;-68
2021/05/02 02:01:41;;;;;;;21.20;17.03;;;7.80;99.90;;;;;;5090210;28;20987;-68
2021/05/02 02:04:08;;;;;;;20.60;16.20;;;7.90;99.90;;;;;;5090730;28;20541;-68
2021/05/02 02:06:35;;;;;;;20.70;16.20;;;7.90;99.90;;;;;;5089713;28;20445;-68
2021/05/02 02:09:05;;;;;;;22.57;17.10;;;7.80;99.90;;;;;;5090874;28;20445;-68
2021/05/02 02:11:32;;;;;;;26.10;18.87;;;7.70;99.90;;;;;;5091779;28;20543;-67
2021/05/02 02:13:59;;;;;;;22.67;16.70;;;7.60;99.90;;;;;;5095177;28;20448;-68
2021/05/02 02:16:27;;;;;;;22.43;18.13;;;7.90;99.90;;;;;;5093943;28;20480;-68
2021/05/02 02:18:54;;;;;;;22.23;18.20;;;7.70;99.90;;;;;;5095106;28;20442;-69
2021/05/02 02:21:24;;;;;;;22.87;17.27;;;7.50;99.90;;;;;;5094800;28;20952;-69
2021/05/02 02:23:56;;;;;;;25.23;19.70;;;7.60;99.90;;;;;;5094759;28;20441;-69
2021/05/02 02:26:28;;;;;;;22.93;18.50;;;7.50;99.90;;;;;;5094334;28;20444;-68
2021/05/02 02:28:55;;;;;;;24.97;17.50;;;7.50;99.90;;;;;;5095185;28;20449;-68
2021/05/02 02:31:23;;;;;;;29.53;20.33;;;7.50;99.90;;;;;;5094962;28;20455;-68
2021/05/02 02:33:51;;;;;;;27.07;19.47;;;7.40;99.90;;;;;;5094436;28;20444;-68
2021/05/02 02:36:18;;;;;;;28.97;21.00;;;7.40;99.90;;;;;;5094337;28;20440;-68
2021/05/02 02:38:46;;;;;;;26.83;18.40;;;7.20;99.90;;;;;;5094201;28;20436;-68
2021/05/02 02:41:17;;;;;;;27.90;19.63;;;7.30;99.90;;;;;;5094493;28;20457;-68
2021/05/02 02:43:52;;;;;;;32.03;21.43;;;7.40;99.90;;;;;;5093993;28;20823;-68
2021/05/02 02:46:20;;;;;;;32.57;22.20;;;7.30;99.90;;;;;;5093645;28;20512;-69
2021/05/02 02:48:53;;;;;;;27.50;21.40;;;7.40;99.90;;;;;;5094054;28;20793;-68
2021/05/02 02:51:21;;;;;;;30.00;22.00;;;7.50;99.90;;;;;;5094824;28;20449;-69
2021/05/02 02:53:51;;;;;;;26.73;19.53;;;7.30;99.90;;;;;;5093750;28;20448;-68
2021/05/02 02:56:19;;;;;;;28.23;20.57;;;7.40;99.90;;;;;;5080266;28;20468;-68
2021/05/02 02:58:55;;;;;;;30.40;20.60;;;7.50;99.90;;;;;;5093354;28;20948;-68
2021/05/02 03:01:21;;;;;;;27.50;20.20;;;7.60;99.90;;;;;;5094118;28;20439;-68
2021/05/02 03:03:50;;;;;;;30.67;22.30;;;7.60;99.90;;;;;;5093123;28;20444;-68
2021/05/02 03:06:19;;;;;;;31.80;21.60;;;7.60;99.90;;;;;;5093490;28;20800;-68
2021/05/02 03:08:48;;;;;;;28.30;20.00;;;7.70;99.90;;;;;;5093786;28;20555;-69
2021/05/02 03:11:16;;;;;;;25.87;19.90;;;7.80;99.90;;;;;;5094304;28;20520;-69
2021/05/02 03:13:44;;;;;;;24.30;19.37;;;7.90;99.90;;;;;;5092940;28;20449;-69
2021/05/02 03:16:11;;;;;;;24.47;17.60;;;7.80;99.90;;;;;;5093546;28;20440;-69
2021/05/02 03:18:48;;;;;;;25.57;20.67;;;7.80;99.90;;;;;;5093587;28;20452;-69
2021/05/02 03:21:22;;;;;;;22.77;19.00;;;7.80;99.90;;;;;;5094140;28;20436;-69
2021/05/02 03:23:54;;;;;;;28.37;19.80;;;7.80;99.90;;;;;;5092447;28;20964;-69
2021/05/02 03:26:24;;;;;;;25.60;19.20;;;7.80;99.90;;;;;;5093429;28;20577;-68
2021/05/02 03:28:54;;;;;;;28.40;18.90;;;7.70;99.90;;;;;;5093996;28;20523;-68
2021/05/02 03:31:24;;;;;;;25.03;18.33;;;7.80;99.90;;;;;;5093520;28;20440;-68
2021/05/02 03:33:55;;;;;;;24.13;19.50;;;7.70;99.90;;;;;;5093330;28;20449;-69
2021/05/02 03:36:30;;;;;;;28.83;19.40;;;7.80;99.90;;;;;;5092512;28;20944;-69
2021/05/02 03:38:57;;;;;;;25.60;20.87;;;7.80;99.90;;;;;;5091820;28;20446;-69
2021/05/02 03:41:23;;;;;;;24.87;19.80;;;7.80;99.90;;;;;;5092837;28;20793;-69
2021/05/02 03:43:50;;;;;;;30.53;19.73;;;7.70;99.90;;;;;;5093042;28;20445;-69
2021/05/02 03:46:25;;;;;;;27.03;20.20;;;7.90;99.90;;;;;;5093029;28;20534;-69
2021/05/02 03:48:57;;;;;;;25.43;21.30;;;7.80;99.90;;;;;;5093526;28;20441;-69
2021/05/02 03:51:26;;;;;;;25.00;18.40;;;7.90;99.90;;;;;;5080452;28;20812;-69
2021/05/02 03:53:53;;;;;;;28.53;21.00;;;7.90;99.90;;;;;;5092933;28;20452;-69
2021/05/02 03:56:36;;;;;;;26.57;19.10;;;7.70;99.90;;;;;;5092923;28;20527;-69
2021/05/02 03:59:11;;;;;;;23.20;19.57;;;7.80;99.90;;;;;;5093137;28;20501;-69
2021/05/02 04:01:42;;;;;;;26.03;20.43;;;7.90;99.90;;;;;;5092812;28;20444;-69
2021/05/02 04:04:11;;;;;;;24.93;19.90;;;7.80;99.90;;;;;;5093260;28;20809;-69
2021/05/02 04:06:38;;;;;;;27.87;19.33;;;7.90;99.90;;;;;;5092071;28;20536;-69
2021/05/02 04:09:06;;;;;;;31.47;21.37;;;7.80;99.90;;;;;;5093041;28;20469;-69
2021/05/02 04:11:32;;;;;;;30.27;19.30;;;7.70;99.90;;;;;;5092667;28;20497;-69
2021/05/02 04:14:01;;;;;;;26.33;19.93;;;7.70;99.90;;;;;;5092955;28;20987;-69
2021/05/02 04:16:27;;;;;;;29.47;22.03;;;7.70;99.90;;;;;;5091899;28;20453;-68
2021/05/02 04:18:54;;;;;;;27.10;20.50;;;7.60;99.90;;;;;;5092822;28;20449;-69
2021/05/02 04:21:21;;;;;;;21.83;18.50;;;7.70;99.90;;;;;;5092837;28;20543;-69
2021/05/02 04:23:49;;;;;;;28.77;21.00;;;7.70;99.90;;;;;;5091898;28;20448;-68
2021/05/02 04:26:15;;;;;;;31.80;19.63;;;7.70;99.90;;;;;;5092480;28;20451;-68
2021/05/02 04:28:42;;;;;;;25.77;18.80;;;7.70;99.90;;;;;;5091845;28;20506;-69
2021/05/02 04:31:08;;;;;;;26.50;19.20;;;7.70;99.90;;;;;;5092745;28;20472;-69
2021/05/02 04:33:35;;;;;;;28.23;20.40;;;7.70;99.90;;;;;;5092098;28;20590;-68
2021/05/02 04:36:01;;;;;;;26.20;19.47;;;7.50;99.90;;;;;;5091266;28;20539;-68
2021/05/02 04:38:27;;;;;;;29.00;21.67;;;7.40;99.90;;;;;;5082106;28;20490;-68
2021/05/02 04:40:55;;;;;;;26.07;19.00;;;7.40;99.90;;;;;;5092167;28;20452;-68
2021/05/02 04:43:21;;;;;;;28.60;19.33;;;7.40;99.90;;;;;;5092882;28;20457;-69
2021/05/02 04:45:47;;;;;;;25.63;19.10;;;7.40;99.90;;;;;;5091077;28;20448;-68
2021/05/02 04:48:14;;;;;;;31.57;20.50;;;7.40;99.90;;;;;;5092358;28;20453;-68
2021/05/02 04:50:40;;;;;;;30.40;22.30;;;7.40;99.90;;;;;;5091742;28;20455;-69
2021/05/02 04:53:07;;;;;;;30.13;21.90;;;7.30;99.90;;;;;;5092405;28;20471;-69
2021/05/02 04:55:33;;;;;;;31.83;22.20;;;7.20;99.90;;;;;;5090839;28;20487;-68
2021/05/02 04:58:02;;;;;;;28.83;22.97;;;7.40;99.90;;;;;;5091924;28;20529;-70
2021/05/02 05:00:28;;;;;;;31.83;24.20;;;7.30;99.90;;;;;;5091406;28;20940;-69
2021/05/02 05:02:56;;;;;;;32.13;20.70;;;7.40;99.90;;;;;;5092126;28;20796;-68
2021/05/02 05:05:22;;;;;;;32.13;20.53;;;7.40;99.90;;;;;;5091939;28;20441;-69
2021/05/02 05:07:48;;;;;;;30.27;23.07;;;7.40;99.90;;;;;;5091143;28;20539;-68
2021/05/02 05:10:15;;;;;;;30.43;21.90;;;7.60;99.90;;;;;;5091986;28;20451;-69
2021/05/02 05:12:41;;;;;;;28.37;21.37;;;7.60;99.90;;;;;;5091520;28;20444;-69
2021/05/02 05:15:10;;;;;;;24.80;19.40;;;7.60;99.90;;;;;;5091619;28;20448;-69
2021/05/02 05:17:36;;;;;;;31.53;21.80;;;7.60;99.90;;;;;;5091230;28;20583;-68
2021/05/02 05:20:04;;;;;;;31.03;23.33;;;7.70;99.90;;;;;;5091932;28;20789;-68
2021/05/02 05:22:30;;;;;;;28.97;22.40;;;7.70;99.90;;;;;;5091262;28;20914;-68
2021/05/02 05:24:57;;;;;;;26.67;21.70;;;7.60;99.90;;;;;;5090919;28;20463;-68
2021/05/02 05:27:24;;;;;;;26.80;20.93;;;7.60;99.90;;;;;;5091687;28;20480;-68
2021/05/02 05:29:50;;;;;;;25.93;21.00;;;7.70;99.90;;;;;;5090482;28;20432;-69
2021/05/02 05:32:17;;;;;;;27.53;21.07;;;7.70;99.90;;;;;;5091064;28;20455;-68
2021/05/02 05:34:44;;;;;;;30.03;22.37;;;7.80;99.90;;;;;;5089911;28;20451;-68
2021/05/02 05:37:10;;;;;;;28.23;21.23;;;7.80;99.90;;;;;;5090205;28;20471;-70
2021/05/02 05:39:37;;;;;;;22.83;19.00;;;7.90;99.90;;;;;;5090199;28;20445;-71
2021/05/02 05:42:03;;;;;;;28.57;20.40;;;;;;;;;;5090923;28;20965;-69
2021/05/02 05:44:30;;;;;;;24.07;19.60;;;;;;;;;;5090564;28;20539;-69
2021/05/02 05:46:56;;;;;;;27.77;20.43;;;7.90;99.90;;;;;;5090248;28;20489;-68
2021/05/02 05:49:24;;;;;;;23.33;19.00;;;8.10;99.90;;;;;;5091197;28;20445;-67
2021/05/02 05:51:52;;;;;;;26.67;19.00;;;8.00;99.90;;;;;;5090771;28;20451;-67
2021/05/02 05:54:19;;;;;;;27.87;19.03;;;8.00;99.90;;;;;;5090997;28;20507;-67
2021/05/02 05:56:46;;;;;;;24.50;18.97;;;8.00;99.90;;;;;;5090348;28;20555;-68
2021/05/02 05:59:12;;;;;;;27.13;20.03;;;8.00;99.90;;;;;;5091248;28;20583;-68
2021/05/02 06:01:39;;;;;;;24.80;18.30;;;8.10;99.90;;;;;;5090706;28;20536;-67
2021/05/02 06:04:05;;;;;;;26.50;18.20;;;8.00;99.90;;;;;;5091304;28;20493;-68
2021/05/02 06:06:34;;;;;;;27.57;18.23;;;8.20;99.90;;;;;;5090366;28;20848;-68
2021/05/02 06:09:01;;;;;;;21.97;17.90;;;8.30;99.90;;;;;;5091309;28;20456;-68
2021/05/02 06:11:29;;;;;;;23.50;17.63;;;8.50;99.90;;;;;;5090631;28;20524;-68
2021/05/02 06:13:56;;;;;;;24.83;19.60;;;8.60;99.90;;;;;;5090878;28;20777;-68
2021/05/02 06:16:22;;;;;;;24.17;18.40;;;8.70;99.90;;;;;;5090480;28;20532;-68
2021/05/02 06:18:49;;;;;;;20.23;17.40;;;8.80;99.90;;;;;;5090508;28;20440;-68
2021/05/02 06:21:15;;;;;;;22.70;18.60;;;8.80;99.90;;;;;;5091035;28;20527;-67
2021/05/02 06:23:42;;;;;;;26.17;18.20;;;8.60;99.90;;;;;;5090399;28;20449;-67
2021/05/02 06:26:08;;;;;;;21.50;17.67;;;8.60;99.90;;;;;;5089994;28;20516;-68
2021/05/02 06:28:35;;;;;;;20.53;17.53;;;8.40;99.90;;;;;;5090117;28;20541;-67
2021/05/02 06:31:01;;;;;;;18.70;15.40;;;8.30;99.90;;;;;;5090790;28;20444;-67
2021/05/02 06:33:27;;;;;;;20.50;18.10;;;8.30;99.90;;;;;;5089987;28;20456;-67
2021/05/02 06:35:54;;;;;;;21.63;17.57;;;8.50;99.90;;;;;;5090392;28;20452;-68
2021/05/02 06:38:20;;;;;;;24.47;17.97;;;8.30;99.90;;;;;;5081799;28;20575;-68
2021/05/02 06:40:47;;;;;;;20.10;16.80;;;8.20;99.90;;;;;;5090247;28;20521;-68
2021/05/02 06:43:14;;;;;;;22.63;17.87;;;8.10;99.90;;;;;;5090654;28;20537;-67
2021/05/02 06:45:40;;;;;;;22.13;16.67;;;8.10;99.90;;;;;;5089723;28;20448;-67
2021/05/02 06:48:07;;;;;;;22.03;18.20;;;8.20;99.90;;;;;;5090823;28;20453;-68
2021/05/02 06:50:33;;;;;;;22.30;16.03;;;8.30;99.90;;;;;;5090449;28;20524;-67
2021/05/02 06:53:00;;;;;;;20.53;17.33;;;8.30;99.90;;;;;;5090871;28;20472;-68
2021/05/02 06:55:27;;;;;;;18.27;15.83;;;8.50;99.90;;;;;;5090102;28;21057;-67
2021/05/02 06:57:55;;;;;;;22.60;17.23;;;8.50;99.90;;;;;;5090652;28;20484;-67
2021/05/02 07:00:22;;;;;;;22.90;17.27;;;8.60;99.90;;;;;;5094083;28;20444;-68
2021/05/02 07:02:48;;;;;;;20.70;16.30;;;8.70;99.90;;;;;;5093659;28;20516;-68
2021/05/02 07:05:14;;;;;;;20.83;16.00;;;8.90;99.90;;;;;;5094021;28;20531;-67
2021/05/02 07:07:41;;;;;;;19.37;16.00;;;8.90;99.90;;;;;;5093867;28;20436;-67
2021/05/02 07:10:08;;;;;;;22.30;15.37;;;8.80;99.90;;;;;;5094228;28;20524;-67
2021/05/02 07:12:34;;;;;;;16.83;14.30;;;8.80;99.90;;;;;;5093844;28;20496;-67
2021/05/02 07:15:02;;;;;;;18.10;16.20;;;8.70;99.90;;;;;;5093674;28;20459;-68
2021/05/02 07:17:31;;;;;;;22.00;13.67;;;8.70;99.90;;;;;;5093410;28;20482;-67
2021/05/02 07:19:57;;;;;;;20.33;14.23;;;8.90;99.90;;;;;;5093898;28;20479;-67
2021/05/02 07:22:25;;;;;;;16.50;13.83;;;8.90;99.90;;;;;;5093992;28;20867;-67
2021/05/02 07:24:52;;;;;;;17.40;14.73;;;8.90;99.90;;;;;;5092920;28;20461;-67
2021/05/02 07:27:18;;;;;;;17.57;15.07;;;9.20;99.90;;;;;;5093966;28;20452;-67
2021/05/02 07:29:45;;;;;;;19.63;16.20;;;9.30;99.90;;;;;;5093236;28;20451;-67
2021/05/02 07:32:12;;;;;;;15.93;13.70;;;9.50;99.90;;;;;;5094109;28;20455;-67
2021/05/02 07:34:39;;;;;;;18.77;15.23;;;9.50;99.90;;;;;;5092618;28;20539;-67
2021/05/02 07:37:05;;;;;;;16.03;13.40;;;9.50;99.90;;;;;;5092949;28;20533;-67
2021/05/02 07:39:32;;;;;;;16.37;13.30;;;9.60;99.90;;;;;;5092840;28;20448;-67
2021/05/02 07:41:58;;;;;;;17.90;13.53;;;9.50;43.90;;;;;;5093620;28;20444;-67
2021/05/02 07:44:25;;;;;;;17.10;13.10;;;9.50;1.00;;;;;;5093187;28;20850;-67
2021/05/02 07:46:51;;;;;;;15.30;13.70;;;9.60;93.20;;;;;;5092250;28;20448;-67
2021/05/02 07:49:18;;;;;;;15.00;13.13;;;9.80;33.20;;;;;;5092550;28;20456;-67
2021/05/02 07:51:44;;;;;;;16.73;14.30;;;10.00;1.00;;;;;;5092299;28;20449;-67
2021/05/02 07:54:11;;;;;;;14.10;12.60;;;10.30;1.00;;;;;;5092896;28;20955;-67
2021/05/02 07:56:37;;;;;;;13.63;11.23;;;10.50;1.00;;;;;;5092114;28;20514;-67
2021/05/02 07:59:04;;;;;;;15.30;11.73;;;10.70;99.90;;;;;;5092987;28;20550;-67
2021/05/02 08:01:30;;;;;;;13.57;11.90;;;10.70;1.00;;;;;;5092184;28;20507;-67
2021/05/02 08:03:57;;;;;;;13.97;12.43;;;10.70;99.90;;;;;;5092635;28;20447;-67
2021/05/02 08:06:24;;;;;;;14.40;12.20;;;10.60;1.00;;;;;;5092600;28;20614;-68
2021/05/02 08:08:52;;;;;;;12.50;11.30;;;10.50;69.50;;;;;;5091167;28;20467;-68
2021/05/02 08:11:19;;;;;;;17.53;12.40;;;10.40;1.00;;;;;;5093128;28;20491;-68
2021/05/02 08:13:45;;;;;;;12.80;11.27;;;10.10;99.90;;;;;;5090197;28;20944;-71
2021/05/02 08:16:11;;;;;;;14.60;12.73;;;9.80;1.00;;;;;;5090763;28;20543;-68
2021/05/02 08:18:38;;;;;;;13.90;11.37;;;9.90;1.00;;;;;;5090984;28;20480;-67
2021/05/02 08:21:07;;;;;;;13.83;10.53;;;10.00;99.90;;;;;;5092677;28;20437;-67
2021/05/02 08:23:34;;;;;;;17.70;11.00;;;10.40;1.00;;;;;;5091357;28;20449;-68
2021/05/02 08:26:01;;;;;;;14.40;11.97;;;10.60;1.00;;;;;;5091376;28;20469;-69
2021/05/02 08:28:27;;;;;;;12.40;10.30;;;10.80;53.20;;;;;;5092453;28;20509;-68
2021/05/02 08:30:53;;;;;;;12.47;10.73;;;10.90;1.00;;;;;;5091253;28;20902;-68
2021/05/02 08:33:20;;;;;;;13.33;11.57;;;11.00;1.00;;;;;;5092357;28;20527;-68
2021/05/02 08:35:48;;;;;;;10.77;9.67;;;11.10;99.90;;;;;;5091353;28;20505;-68
2021/05/02 08:38:15;;;;;;;11.07;9.90;;;11.20;99.90;;;;;;5092087;28;20537;-68
2021/05/02 08:40:43;;;;;;;16.20;11.83;;;11.20;99.90;;;;;;5091654;28;20478;-68
2021/05/02 08:43:10;;;;;;;13.33;10.40;;;11.50;99.90;;;;;;5091785;28;20463;-67
2021/05/02 08:45:37;;;;;;;11.93;10.20;;;11.50;99.90;;;;;;5091279;28;20851;-69
2021/05/02 08:48:04;;;;;;;15.73;11.40;;;11.30;68.60;;;;;;5092624;28;20440;-68
2021/05/02 08:50:31;;;;;;;13.93;12.43;;;11.30;99.90;;;;;;5091823;28;20479;-67
2021/05/02 08:52:57;;;;;;;11.33;10.10;;;11.20;99.90;;;;;;5091981;28;20891;-68
2021/05/02 08:55:24;;;;;;;10.90;9.70;;;10.80;99.90;;;;;;5091368;28;20610;-67
2021/05/02 08:57:51;;;;;;;15.90;11.17;;;10.80;99.90;;;;;;5091162;28;21237;-67
2021/05/02 09:00:19;;;;;;;11.70;10.50;;;10.80;1.00;;;;;;5091336;28;20483;-67
2021/05/02 09:02:54;;;;;;;11.77;10.57;;;11.10;1.00;;;;;;5091863;28;20789;-79
2021/05/02 09:05:21;;;;;;;20.70;11.50;;;11.40;1.00;;;;;;5091943;28;20936;-69
2021/05/02 09:07:47;;;;;;;11.03;9.93;;;11.70;99.90;;;;;;5091305;28;20478;-70
2021/05/02 09:10:15;;;;;;;14.10;11.33;;;12.00;50.60;;;;;;5092475;28;20436;-67
2021/05/02 09:12:43;;;;;;;11.83;10.60;;;12.30;1.00;;;;;;5090990;28;20447;-67
2021/05/02 09:15:20;;;;;;;12.60;11.07;;;12.30;1.00;;;;;;5092089;28;20853;-67
2021/05/02 09:17:51;;;;;;;13.37;11.33;;;11.90;1.00;;;;;;5091491;28;20532;-66
2021/05/02 09:20:45;;;;;;;14.27;11.67;;;11.70;1.00;;;;;;5091846;28;20437;-66
2021/05/02 09:23:14;;;;;;;12.17;11.07;;;11.60;1.00;;;;;;5091734;28;20459;-67
2021/05/02 09:25:48;;;;;;;45.93;33.93;;;11.50;10.10;;;;;;5089740;28;20452;-66
2021/05/02 09:28:16;;;;;;;13.03;11.70;;;11.40;1.00;;;;;;5091583;28;20448;-65
2021/05/02 09:30:44;;;;;;;11.03;9.80;;;11.40;1.00;;;;;;5091281;28;20779;-64
2021/05/02 09:33:25;;;;;;;12.33;11.03;;;11.40;1.00;;;;;;5091586;28;20493;-65
2021/05/02 09:35:52;;;;;;;14.43;12.53;;;11.60;1.00;;;;;;5090788;28;20448;-65
2021/05/02 09:38:19;;;;;;;14.40;11.60;;;11.80;1.00;;;;;;5091418;28;20480;-65
2021/05/02 09:40:47;;;;;;;11.70;10.50;;;11.90;1.00;;;;;;5090509;28;20524;-72
2021/05/02 09:43:39;;;;;;;16.30;12.87;;;12.10;1.00;;;;;;5091935;28;20531;-66
2021/05/02 09:46:28;;;;;;;12.47;11.27;;;12.20;1.00;;;;;;5086736;28;20456;-66
2021/05/02 09:49:00;;;;;;;13.00;11.40;;;12.10;1.00;;;;;;5084717;28;20505;-66
2021/05/02 09:51:28;;;;;;;13.90;12.33;;;11.90;1.00;;;;;;5086122;28;20476;-66
2021/05/02 09:54:19;;;;;;;17.30;11.70;;;11.60;99.90;;;;;;5087955;28;20971;-67
2021/05/02 09:56:47;;;;;;;12.93;11.30;;;11.50;99.90;;;;;;5087501;28;20936;-67
2021/05/02 09:59:23;;;;;;;13.77;11.43;;;11.40;1.00;;;;;;5087799;28;20535;-67
2021/05/02 10:02:26;;;;;;;14.60;12.70;;;11.50;1.00;;;;;;5087327;28;20447;-66
2021/05/02 10:04:57;;;;;;;15.37;12.03;;;11.60;1.00;;;;;;5074896;28;20448;-66
2021/05/02 10:07:25;;;;;;;15.40;12.03;;;11.40;1.00;;;;;;5087941;28;20445;-66
2021/05/02 10:09:52;;;;;;;12.50;11.20;;;11.60;1.00;;;;;;5087522;28;20445;-66
2021/05/02 10:12:19;;;;;;;13.40;12.00;;;11.70;1.00;;;;;;5087230;28;20872;-66
2021/05/02 10:14:47;;;;;;;17.67;11.80;;;11.60;1.00;;;;;;5087935;28;20531;-66
2021/05/02 10:17:14;;;;;;;13.90;12.10;;;11.30;1.00;;;;;;5087940;28;20516;-66
2021/05/02 10:19:41;;;;;;;16.40;11.80;;;11.40;1.00;;;;;;5088139;28;20448;-66
2021/05/02 10:22:11;;;;;;;13.90;11.93;;;11.70;1.00;;;;;;5087361;28;20464;-66
2021/05/02 10:24:38;;;;;;;13.93;11.37;;;12.00;1.00;;;;;;5087218;28;20563;-66
2021/05/02 10:27:11;;;;;;;14.90;11.60;;;12.30;1.00;;;;;;5088560;28;20437;-65
2021/05/02 10:29:40;;;;;;;14.10;11.67;;;12.40;1.00;;;;;;5087351;28;20931;-65
2021/05/02 10:32:09;;;;;;;13.70;12.30;;;12.30;99.90;;;;;;5089204;28;20445;-65
2021/05/02 10:34:37;;;;;;;13.40;12.00;;;12.20;99.90;;;;;;5092150;28;20447;-65
2021/05/02 10:37:27;;;;;;;13.23;11.83;;;12.10;99.90;;;;;;5092513;28;20468;-66
2021/05/02 10:39:56;;;;;;;13.70;11.40;;;12.10;99.90;;;;;;5091669;28;20462;-65
2021/05/02 10:42:46;;;;;;;13.57;12.27;;;12.00;99.90;;;;;;5091271;28;20441;-66
2021/05/02 10:45:41;;;;;;;13.77;12.40;;;12.10;99.90;;;;;;5081505;28;20449;-66
2021/05/02 10:48:30;;;;;;;14.80;11.90;;;12.10;99.90;;;;;;5091859;28;20493;-65
2021/05/02 10:50:58;;;;;;;15.07;12.10;;;12.20;99.90;;;;;;5089420;28;20844;-66
2021/05/02 10:53:27;;;;;;;13.33;11.00;;;12.50;99.90;;;;;;5091511;28;20447;-67
2021/05/02 10:55:56;;;;;;;14.30;11.23;;;12.60;99.90;;;;;;5091067;28;20487;-74
2021/05/02 10:58:24;;;;;;;17.13;12.70;;;13.00;99.90;;;;;;5092784;28;20881;-67
2021/05/02 11:00:55;;;;;;;12.67;10.73;;;13.00;99.90;;;;;;5092859;28;20444;-66
2021/05/02 11:03:53;;;;;;;13.93;11.30;;;13.10;99.90;;;;;;5079301;28;20436;-67
2021/05/02 11:06:52;;;;;;;14.03;11.43;;;13.30;99.90;;;;;;5094473;28;20435;-66
2021/05/02 11:09:50;;;;;;;12.03;10.80;;;13.30;99.90;;;;;;5094004;28;20436;-66
2021/05/02 11:12:31;;;;;;;14.23;11.33;;;13.20;99.90;;;;;;5085350;28;20797;-66
2021/05/02 11:14:57;;;;;;;12.73;11.43;;;13.00;99.90;;;;;;5093477;28;20440;-66
2021/05/02 11:17:31;;;;;;;13.23;11.87;;;13.30;99.90;;;;;;5093637;28;20561;-66
2021/05/02 11:20:01;;;;;;;13.07;11.03;;;13.20;99.90;;;;;;5093846;28;20425;-67
2021/05/02 11:22:29;;;;;;;21.33;12.57;;;13.10;99.90;;;;;;5093843;28;20841;-67
2021/05/02 11:25:01;;;;;;;14.97;13.37;;;12.80;99.90;;;;;;5093242;28;20449;-66
2021/05/02 11:30:30;;;;;;;12.03;10.93;;;12.60;99.90;;;;;;5091884;28;20433;-66
2021/05/02 11:32:57;;;;;;;12.70;10.73;;;;;;;;;;5093107;28;20452;-66
2021/05/02 11:35:46;;;;;;;13.13;10.57;;;12.10;99.90;;;;;;5093870;28;20517;-65
2021/05/02 11:38:17;;;;;;;9.73;8.80;;;9.60;1.00;;;;;;5093534;28;20838;-66
2021/05/02 11:40:46;;;;;;;11.37;9.63;;;10.10;67.30;;;;;;5093048;28;20940;-65
2021/05/02 11:43:16;;;;;;;9.43;8.50;;;10.00;99.90;;;;;;5093420;28;20476;-66
2021/05/02 11:45:46;;;;;;;10.43;9.37;;;9.90;1.00;;;;;;5092049;28;20488;-66
2021/05/02 11:48:25;;;;;;;11.07;9.90;;;10.00;1.00;;;;;;5093469;28;20498;-66
2021/05/02 11:50:55;;;;;;;14.00;11.80;;;10.60;1.00;;;;;;5092835;28;20437;-66
2021/05/02 11:53:42;;;;;;;15.17;12.20;;;10.90;1.00;;;;;;5093265;28;20936;-66
2021/05/02 11:56:23;;;;;;;14.10;12.60;;;11.20;1.00;;;;;;5087443;28;20972;-66
2021/05/02 11:58:51;;;;;;;14.37;12.27;;;11.40;99.90;;;;;;5092400;28;20468;-67
2021/05/02 12:01:21;;;;;;;15.33;11.47;;;11.80;99.90;;;;;;5092606;28;20500;-66
2021/05/02 12:03:48;;;;;;;14.53;11.17;;;11.90;99.90;;;;;;5092193;28;21000;-66
2021/05/02 12:06:26;;;;;;;13.00;11.70;;;12.00;99.90;;;;;;5092139;28;20444;-66
2021/05/02 12:08:53;;;;;;;10.90;9.80;;;12.30;1.00;;;;;;5092006;28;20433;-66
2021/05/02 12:11:20;;;;;;;10.70;9.70;;;12.70;1.00;;;;;;5092886;28;20881;-66
2021/05/02 12:13:50;;;;;;;10.17;9.23;;;12.80;1.00;;;;;;5091910;28;20449;-66
2021/05/02 12:16:18;;;;;;;9.70;8.50;;;12.80;1.00;;;;;;5093058;28;20441;-65
2021/05/02 12:18:59;;;;;;;11.83;9.63;;;12.40;1.00;;;;;;5092252;28;20476;-66
2021/05/02 12:21:31;;;;;;;9.77;8.77;;;12.20;1.00;;;;;;5092466;28;20487;-66
2021/05/02 12:24:19;;;;;;;10.43;9.47;;;12.10;1.00;;;;;;5091340;28;20536;-66
2021/05/02 12:26:48;;;;;;;10.17;9.13;;;12.10;1.00;;;;;;5089003;28;20457;-65
2021/05/02 12:29:18;;;;;;;9.80;8.43;;;11.70;1.00;;;;;;5092424;28;20451;-66
2021/05/02 12:31:54;;;;;;;9.97;9.03;;;11.00;99.90;;;;;;5092433;28;20484;-65
2021/05/02 12:34:25;;;;;;;10.20;8.40;;;;;;;;;;5092054;28;20944;-66
2021/05/02 12:36:52;;;;;;;8.53;7.50;;;;;;;;;;5091622;28;20441;-66
2021/05/02 12:39:18;;;;;;;7.03;6.00;;;;;;;;;;5091806;28;20476;-66
2021/05/02 12:41:51;;;;;;;7.53;6.30;;;;;;;;;;5091691;28;20486;-65
2021/05/02 12:44:20;;;;;;;6.20;5.60;;;;;;;;;;5091822;28;20515;-66
2021/05/02 12:46:47;;;;;;;6.07;5.47;;;;;;;;;;5091591;28;20451;-65
2021/05/02 12:49:21;;;;;;;6.83;6.17;;;10.00;1.00;;;;;;5092429;28;20527;-66
2021/05/02 12:51:51;;;;;;;6.37;5.77;;;10.10;1.00;;;;;;5090050;28;20971;-66